createdAt,value
2023-01-13T00:01:56.627Z,9.13
2023-01-13T00:04:23.131Z,9.13
2023-01-13T00:06:49.576Z,9.11
2023-01-13T00:09:16.030Z,9.05
2023-01-13T00:11:42.618Z,9.06
2023-01-13T00:14:09.157Z,8.90
2023-01-13T00:16:35.617Z,8.94
2023-01-13T00:19:02.072Z,8.90
2023-01-13T00:21:28.534Z,8.85
2023-01-13T00:23:55.426Z,8.91
2023-01-13T00:26:24.964Z,8.84
2023-01-13T00:28:55.901Z,8.74
2023-01-13T00:31:22.427Z,8.75
2023-01-13T00:33:49.335Z,8.67
2023-01-13T00:36:16.987Z,8.72
2023-01-13T00:38:44.267Z,8.74
2023-01-13T00:41:13.677Z,8.73
2023-01-13T00:43:40.359Z,8.69
2023-01-13T00:46:08.636Z,8.78
2023-01-13T00:48:35.993Z,8.87
2023-01-13T00:51:05.750Z,8.78
2023-01-13T00:53:37.737Z,8.90
2023-01-13T00:56:22.135Z,8.82
2023-01-13T00:58:53.918Z,8.89
2023-01-13T01:01:22.401Z,8.84
2023-01-13T01:03:53.429Z,8.88
2023-01-13T01:06:26.010Z,8.87
2023-01-13T01:08:53.559Z,8.95
2023-01-13T01:11:25.470Z,8.87
2023-01-13T01:13:54.003Z,8.85
2023-01-13T01:16:22.716Z,8.76
2023-01-13T01:18:50.990Z,8.59
2023-01-13T01:21:18.485Z,8.49
2023-01-13T01:23:45.660Z,8.62
2023-01-13T01:26:18.209Z,8.48
2023-01-13T01:28:46.005Z,8.48
2023-01-13T01:31:15.242Z,8.41
2023-01-13T01:33:41.738Z,8.33
2023-01-13T01:36:11.181Z,8.33
2023-01-13T01:38:38.015Z,8.27
2023-01-13T01:41:04.827Z,8.26
2023-01-13T01:43:48.175Z,8.19
2023-01-13T01:46:14.655Z,8.22
2023-01-13T01:48:43.024Z,8.19
2023-01-13T01:51:13.347Z,8.28
2023-01-13T01:53:40.499Z,8.23
2023-01-13T01:56:08.992Z,8.28
2023-01-13T01:58:41.059Z,8.11
2023-01-13T02:01:08.265Z,8.15
2023-01-13T02:03:40.084Z,8.08
2023-01-13T02:06:06.805Z,8.01
2023-01-13T02:08:33.324Z,7.98
2023-01-13T02:10:59.792Z,8.00
2023-01-13T02:13:26.319Z,7.97
2023-01-13T02:16:22.019Z,7.90
2023-01-13T02:19:23.562Z,7.84
2023-01-13T02:22:07.031Z,7.78
2023-01-13T02:24:48.022Z,7.73
2023-01-13T02:27:44.423Z,7.83
2023-01-13T02:30:49.684Z,7.67
2023-01-13T02:33:45.459Z,7.66
2023-01-13T02:36:31.588Z,7.66
2023-01-13T02:39:10.044Z,7.56
2023-01-13T02:41:50.758Z,7.60
2023-01-13T02:44:24.637Z,7.66
2023-01-13T02:47:10.395Z,7.61
2023-01-13T02:49:42.605Z,7.52
2023-01-13T02:52:17.619Z,7.61
2023-01-13T02:54:47.837Z,7.64
2023-01-13T02:57:18.141Z,7.52
2023-01-13T02:59:44.547Z,7.49
2023-01-13T03:02:16.226Z,7.50
2023-01-13T03:04:52.248Z,7.52
2023-01-13T03:07:18.472Z,7.56
2023-01-13T03:10:00.384Z,7.57
2023-01-13T03:12:43.844Z,7.36
2023-01-13T03:15:22.679Z,7.24
2023-01-13T03:17:55.656Z,7.37
2023-01-13T03:20:30.901Z,7.32
2023-01-13T03:23:07.317Z,7.37
2023-01-13T03:25:49.547Z,7.31
2023-01-13T03:28:25.495Z,7.33
2023-01-13T03:30:59.059Z,7.15
2023-01-13T03:33:31.808Z,7.17
2023-01-13T03:36:04.698Z,7.14
2023-01-13T03:38:39.429Z,7.09
2023-01-13T03:41:15.559Z,7.10
2023-01-13T03:43:48.634Z,7.12
2023-01-13T03:46:21.396Z,7.20
2023-01-13T03:48:52.881Z,7.18
2023-01-13T03:51:25.047Z,7.18
2023-01-13T03:53:57.685Z,7.23
2023-01-13T03:56:31.139Z,7.32
2023-01-13T03:59:00.664Z,7.56
2023-01-13T04:02:01.586Z,7.45
2023-01-13T04:04:41.633Z,7.44
2023-01-13T04:07:27.143Z,7.48
2023-01-13T04:09:57.306Z,7.62
2023-01-13T04:12:28.567Z,7.53
2023-01-13T04:14:55.965Z,7.61
2023-01-13T04:17:22.341Z,7.55
2023-01-13T04:19:48.623Z,7.47
2023-01-13T04:22:14.929Z,7.43
2023-01-13T04:24:41.252Z,7.42
2023-01-13T04:27:07.600Z,7.49
2023-01-13T04:29:33.898Z,7.59
2023-01-13T04:32:00.206Z,7.58
2023-01-13T04:34:28.410Z,7.45
2023-01-13T04:36:54.909Z,7.44
2023-01-13T04:39:21.224Z,7.46
2023-01-13T04:41:47.528Z,7.55
2023-01-13T04:44:13.828Z,7.45
2023-01-13T04:46:40.140Z,7.42
2023-01-13T04:49:06.446Z,7.41
2023-01-13T04:51:32.739Z,7.35
2023-01-13T04:53:59.058Z,7.36
2023-01-13T04:56:25.350Z,7.28
2023-01-13T04:58:51.656Z,7.15
2023-01-13T05:01:18.044Z,7.19
2023-01-13T05:03:44.405Z,7.12
2023-01-13T05:06:10.721Z,7.11
2023-01-13T05:08:37.265Z,6.99
2023-01-13T05:11:03.581Z,7.09
2023-01-13T05:13:29.874Z,7.11
2023-01-13T05:15:56.182Z,7.13
2023-01-13T05:18:22.534Z,7.06
2023-01-13T05:20:49.684Z,7.00
2023-01-13T05:23:15.996Z,6.99
2023-01-13T05:25:44.412Z,6.97
2023-01-13T05:28:11.043Z,7.03
2023-01-13T05:30:41.196Z,6.98
2023-01-13T05:33:07.759Z,7.00
2023-01-13T05:35:34.058Z,6.95
2023-01-13T05:38:00.347Z,6.90
2023-01-13T05:40:26.648Z,7.01
2023-01-13T05:43:01.912Z,6.86
2023-01-13T05:45:30.477Z,6.88
2023-01-13T05:47:57.364Z,6.87
2023-01-13T05:50:23.920Z,6.83
2023-01-13T05:52:50.326Z,6.84
2023-01-13T05:55:16.624Z,6.78
2023-01-13T05:57:42.920Z,6.75
2023-01-13T06:00:09.791Z,6.76
2023-01-13T06:02:36.133Z,6.65
2023-01-13T06:05:02.522Z,6.64
2023-01-13T06:07:28.827Z,6.71
2023-01-13T06:09:55.164Z,6.76
2023-01-13T06:12:21.485Z,6.82
2023-01-13T06:14:47.788Z,6.78
2023-01-13T06:17:15.533Z,6.74
2023-01-13T06:19:42.611Z,6.65
2023-01-13T06:22:16.201Z,6.67
2023-01-13T06:24:44.609Z,6.84
2023-01-13T06:27:10.973Z,6.85
2023-01-13T06:29:37.298Z,6.77
2023-01-13T06:32:07.012Z,6.82
2023-01-13T06:34:35.445Z,6.87
2023-01-13T06:37:03.391Z,6.76
2023-01-13T06:39:30.435Z,6.81
2023-01-13T06:41:58.404Z,6.79
2023-01-13T06:44:24.837Z,6.81
2023-01-13T06:46:51.781Z,6.79
2023-01-13T06:49:21.307Z,6.65
2023-01-13T06:51:47.806Z,6.68
2023-01-13T06:54:14.133Z,6.72
2023-01-13T06:56:40.479Z,6.72
2023-01-13T06:59:06.816Z,6.85
2023-01-13T07:01:33.213Z,6.87
2023-01-13T07:03:59.577Z,6.93
2023-01-13T07:06:26.002Z,7.01
2023-01-13T07:08:52.327Z,7.11
2023-01-13T07:11:18.662Z,7.16
2023-01-13T07:13:44.968Z,7.26
2023-01-13T07:16:12.514Z,7.21
2023-01-13T07:18:39.020Z,7.17
2023-01-13T07:21:06.803Z,7.13
2023-01-13T07:23:39.965Z,7.12
2023-01-13T07:26:07.713Z,7.02
2023-01-13T07:28:34.170Z,7.02
2023-01-13T07:31:01.079Z,7.18
2023-01-13T07:33:27.573Z,7.29
2023-01-13T07:35:58.524Z,7.17
2023-01-13T07:38:25.582Z,7.16
2023-01-13T07:40:51.906Z,7.10
2023-01-13T07:43:18.207Z,7.14
2023-01-13T07:45:44.553Z,7.23
2023-01-13T07:48:10.909Z,7.27
2023-01-13T07:50:37.253Z,7.31
2023-01-13T07:53:03.673Z,7.22
2023-01-13T07:55:29.994Z,7.17
2023-01-13T07:57:56.299Z,6.99
2023-01-13T08:00:23.184Z,7.04
2023-01-13T08:02:49.541Z,7.15
2023-01-13T08:05:15.895Z,7.19
2023-01-13T08:07:42.202Z,7.33
2023-01-13T08:10:08.986Z,7.30
2023-01-13T08:12:35.270Z,7.35
2023-01-13T08:15:01.581Z,7.36
2023-01-13T08:17:27.907Z,7.47
2023-01-13T08:19:54.206Z,7.52
2023-01-13T08:22:21.051Z,7.55
2023-01-13T08:24:47.375Z,7.64
2023-01-13T08:27:14.074Z,7.75
2023-01-13T08:29:40.403Z,7.76
2023-01-13T08:32:06.741Z,7.64
2023-01-13T08:34:33.131Z,7.66
2023-01-13T08:36:59.471Z,7.50
2023-01-13T08:39:25.792Z,7.52
2023-01-13T08:41:52.351Z,7.62
2023-01-13T08:44:18.703Z,7.58
2023-01-13T08:46:45.014Z,7.56
2023-01-13T08:49:11.329Z,7.64
2023-01-13T08:51:37.647Z,7.65
2023-01-13T08:54:04.153Z,7.67
2023-01-13T08:56:32.218Z,7.56
2023-01-13T08:59:00.966Z,7.56
2023-01-13T09:01:27.680Z,7.63
2023-01-13T09:03:54.442Z,7.52
2023-01-13T09:06:20.841Z,7.57
2023-01-13T09:08:47.237Z,7.46
2023-01-13T09:11:18.927Z,7.44
2023-01-13T09:13:45.237Z,7.41
2023-01-13T09:16:11.590Z,7.53
2023-01-13T09:18:37.953Z,7.59
2023-01-13T09:21:04.482Z,7.69
2023-01-13T09:23:30.808Z,7.75
2023-01-13T09:25:57.129Z,7.66
2023-01-13T09:28:23.575Z,7.66
2023-01-13T09:30:49.946Z,7.77
2023-01-13T09:33:16.291Z,7.80
2023-01-13T09:35:42.603Z,7.81
2023-01-13T09:38:08.931Z,7.74
2023-01-13T09:40:39.551Z,7.81
2023-01-13T09:43:25.828Z,7.70
2023-01-13T09:46:02.090Z,7.72
2023-01-13T09:48:37.594Z,7.68
2023-01-13T09:51:14.827Z,7.88
2023-01-13T09:53:50.488Z,7.82
2023-01-13T09:56:17.017Z,7.74
2023-01-13T09:58:46.068Z,7.73
2023-01-13T10:01:34.536Z,7.80
2023-01-13T10:04:15.093Z,7.78
2023-01-13T10:06:44.137Z,7.84
2023-01-13T10:09:18.821Z,7.86
2023-01-13T10:11:48.427Z,7.88
2023-01-13T10:14:20.271Z,7.68
2023-01-13T10:16:46.567Z,7.75
2023-01-13T10:19:53.388Z,7.80
2023-01-13T10:22:59.753Z,7.74
2023-01-13T10:25:44.537Z,7.86
2023-01-13T10:28:13.600Z,7.88
2023-01-13T10:30:43.370Z,7.87
2023-01-13T10:33:22.599Z,7.86
2023-01-13T10:36:16.533Z,8.02
2023-01-13T10:38:46.213Z,8.11
2023-01-13T10:41:15.474Z,8.11
2023-01-13T10:43:57.113Z,8.12
2023-01-13T10:46:23.818Z,8.18
2023-01-13T10:48:57.145Z,8.19
2023-01-13T10:51:39.345Z,8.10
2023-01-13T10:54:11.685Z,8.15
2023-01-13T10:56:42.626Z,8.17
2023-01-13T10:59:15.041Z,8.08
2023-01-13T11:01:53.951Z,8.14
2023-01-13T11:04:43.122Z,8.14
2023-01-13T11:07:28.740Z,8.30
2023-01-13T11:10:19.580Z,8.35
2023-01-13T11:12:49.079Z,8.50
2023-01-13T11:15:21.837Z,8.29
2023-01-13T11:17:58.401Z,8.34
2023-01-13T11:20:29.993Z,8.32
2023-01-13T11:22:58.904Z,8.38
2023-01-13T11:25:27.165Z,8.43
2023-01-13T11:28:02.389Z,8.58
2023-01-13T11:30:38.648Z,8.55
2023-01-13T11:33:19.979Z,8.43
2023-01-13T11:36:08.069Z,8.62
2023-01-13T11:38:54.496Z,8.57
2023-01-13T11:41:48.790Z,8.68
2023-01-13T11:44:22.667Z,8.80
2023-01-13T11:46:50.929Z,8.79
2023-01-13T11:49:26.852Z,8.67
2023-01-13T11:52:00.952Z,8.65
2023-01-13T11:54:46.042Z,8.55
2023-01-13T11:57:27.806Z,8.49
2023-01-13T12:00:08.655Z,8.45
2023-01-13T12:03:11.894Z,8.53
2023-01-13T12:05:44.269Z,8.50
2023-01-13T12:08:45.787Z,8.43
2023-01-13T12:11:24.361Z,8.50
2023-01-13T12:13:53.604Z,8.37
2023-01-13T12:16:28.314Z,8.40
2023-01-13T12:19:21.174Z,8.37
2023-01-13T12:22:12.332Z,8.34
2023-01-13T12:24:51.542Z,8.38
2023-01-13T12:27:26.655Z,8.67
2023-01-13T12:29:55.629Z,8.83
2023-01-13T12:32:31.018Z,8.97
2023-01-13T12:35:17.086Z,9.05
2023-01-13T12:38:11.554Z,8.96
2023-01-13T12:41:02.400Z,8.81
2023-01-13T12:43:29.963Z,8.68
2023-01-13T12:46:19.113Z,8.66
2023-01-13T12:48:48.366Z,8.53
2023-01-13T12:51:28.899Z,8.36
2023-01-13T12:53:56.080Z,8.26
2023-01-13T12:56:42.725Z,8.05
2023-01-13T12:59:17.866Z,7.75
2023-01-13T13:01:46.054Z,7.68
2023-01-13T13:04:17.157Z,7.50
2023-01-13T13:07:17.416Z,7.59
2023-01-13T13:09:52.112Z,7.65
2023-01-13T13:12:30.457Z,7.70
2023-01-13T13:14:56.781Z,7.66
2023-01-13T13:17:29.059Z,7.66
2023-01-13T13:19:56.512Z,7.73
2023-01-13T13:22:28.529Z,7.76
2023-01-13T13:24:54.771Z,7.66
2023-01-13T13:27:49.523Z,7.77
2023-01-13T13:30:30.123Z,8.01
2023-01-13T13:33:02.547Z,8.06
2023-01-13T13:35:53.619Z,8.22
2023-01-13T13:38:44.259Z,8.30
2023-01-13T13:41:19.721Z,8.41
2023-01-13T13:43:46.077Z,8.43
2023-01-13T13:46:32.940Z,8.45
2023-01-13T13:48:59.252Z,8.37
2023-01-13T13:51:36.696Z,8.32
2023-01-13T13:54:04.838Z,8.28
2023-01-13T13:56:38.259Z,8.36
2023-01-13T13:59:04.642Z,8.24
2023-01-13T14:01:38.335Z,8.20
2023-01-13T14:04:11.344Z,8.10
2023-01-13T14:06:37.910Z,8.00
2023-01-13T14:09:04.307Z,7.80
2023-01-13T14:11:33.093Z,7.65
2023-01-13T14:14:21.364Z,7.61
2023-01-13T14:16:47.731Z,7.44
2023-01-13T14:19:35.543Z,7.46
2023-01-13T14:22:04.452Z,7.38
2023-01-13T14:24:31.662Z,7.54
2023-01-13T14:27:09.926Z,7.74
2023-01-13T14:29:36.543Z,7.81
2023-01-13T14:32:05.578Z,7.89
2023-01-13T14:34:33.393Z,7.94
2023-01-13T14:37:00.812Z,7.98
2023-01-13T14:39:41.471Z,7.92
2023-01-13T14:42:16.980Z,7.94
2023-01-13T14:44:48.335Z,7.92
2023-01-13T14:47:27.923Z,7.91
2023-01-13T14:50:16.591Z,7.87
2023-01-13T14:52:53.746Z,7.77
2023-01-13T14:55:26.633Z,7.74
2023-01-13T14:57:53.080Z,7.65
2023-01-13T15:00:25.275Z,7.77
2023-01-13T15:02:57.643Z,7.68
2023-01-13T15:05:30.949Z,7.78
2023-01-13T15:08:21.176Z,7.63
2023-01-13T15:11:02.340Z,7.54
2023-01-13T15:13:53.091Z,7.61
2023-01-13T15:16:26.024Z,7.48
2023-01-13T15:18:53.796Z,7.34
2023-01-13T15:21:20.181Z,7.29
2023-01-13T15:23:46.720Z,7.15
2023-01-13T15:26:21.595Z,7.18
2023-01-13T15:28:48.648Z,7.06
2023-01-13T15:31:15.577Z,7.00
2023-01-13T15:33:42.114Z,6.77
2023-01-13T15:36:29.948Z,6.72
2023-01-13T15:38:57.745Z,6.74
2023-01-13T15:41:24.574Z,6.68
2023-01-13T15:43:50.865Z,6.85
2023-01-13T15:46:18.625Z,6.78
2023-01-13T15:48:45.285Z,6.78
2023-01-13T15:51:16.967Z,6.92
2023-01-13T15:53:43.939Z,6.95
2023-01-13T15:56:21.626Z,6.82
2023-01-13T15:58:47.928Z,6.81
2023-01-13T16:01:14.380Z,6.89
2023-01-13T16:03:40.747Z,6.88
2023-01-13T16:06:16.763Z,6.85
2023-01-13T16:08:43.146Z,6.92
2023-01-13T16:11:10.986Z,6.84
2023-01-13T16:13:37.343Z,6.88
2023-01-13T16:16:13.258Z,6.82
2023-01-13T16:18:39.574Z,6.72
2023-01-13T16:21:05.936Z,6.75
2023-01-13T16:23:32.237Z,6.76
2023-01-13T16:25:58.565Z,6.63
2023-01-13T16:28:26.103Z,6.60
2023-01-13T16:30:52.550Z,6.60
2023-01-13T16:33:18.852Z,6.52
2023-01-13T16:36:10.437Z,6.51
2023-01-13T16:38:31.453Z,6.56
2023-01-13T16:40:57.831Z,6.65
2023-01-13T16:43:24.144Z,6.63
2023-01-13T16:45:50.526Z,6.55
2023-01-13T16:48:20.329Z,6.59
2023-01-13T16:50:46.755Z,6.55
2023-01-13T16:53:13.100Z,6.62
2023-01-13T16:55:40.612Z,6.68
2023-01-13T16:58:17.183Z,6.62
2023-01-13T17:00:44.053Z,6.74
2023-01-13T17:03:10.425Z,6.66
2023-01-13T17:05:40.610Z,6.73
2023-01-13T17:08:06.972Z,6.76
2023-01-13T17:10:33.545Z,6.75
2023-01-13T17:13:04.531Z,6.69
2023-01-13T17:15:39.956Z,6.67
2023-01-13T17:18:06.284Z,6.73
2023-01-13T17:20:32.566Z,6.69
2023-01-13T17:22:58.947Z,6.63
2023-01-13T17:25:25.229Z,6.65
2023-01-13T17:27:51.596Z,6.60
2023-01-13T17:30:17.985Z,6.61
2023-01-13T17:32:44.345Z,6.67
2023-01-13T17:35:10.732Z,6.62
2023-01-13T17:37:37.019Z,6.72
2023-01-13T17:40:03.649Z,6.67
2023-01-13T17:42:30.059Z,6.65
2023-01-13T17:44:56.465Z,6.62
2023-01-13T17:47:22.781Z,6.56
2023-01-13T17:49:49.079Z,6.59
2023-01-13T17:52:15.469Z,6.62
2023-01-13T17:54:41.760Z,6.69
2023-01-13T17:57:08.232Z,6.64
2023-01-13T17:59:34.531Z,6.60
2023-01-13T18:02:01.055Z,6.63
2023-01-13T18:04:27.490Z,6.61
2023-01-13T18:06:54.453Z,6.68
2023-01-13T18:09:20.751Z,6.65
2023-01-13T18:11:47.412Z,6.82
2023-01-13T18:14:13.831Z,6.65
2023-01-13T18:16:40.411Z,6.76
2023-01-13T18:19:06.803Z,6.90
2023-01-13T18:21:33.112Z,6.84
2023-01-13T18:23:59.398Z,6.83
2023-01-13T18:26:25.764Z,6.85
2023-01-13T18:28:52.130Z,6.82
2023-01-13T18:31:18.544Z,6.84
2023-01-13T18:33:44.879Z,6.92
2023-01-13T18:36:11.403Z,6.96
2023-01-13T18:38:37.693Z,6.89
2023-01-13T18:41:05.195Z,6.97
2023-01-13T18:43:33.495Z,7.01
2023-01-13T18:45:59.882Z,7.08
2023-01-13T18:48:26.206Z,7.05
2023-01-13T18:50:53.303Z,7.01
2023-01-13T18:53:19.619Z,7.00
2023-01-13T18:55:45.947Z,7.04
2023-01-13T18:58:12.269Z,7.16
2023-01-13T19:00:38.589Z,7.05
2023-01-13T19:05:32.842Z,7.07
2023-01-13T19:07:59.150Z,7.06
2023-01-13T19:10:25.476Z,7.00
2023-01-13T19:12:51.837Z,7.09
2023-01-13T19:15:18.183Z,7.08
2023-01-13T19:17:44.471Z,7.17
2023-01-13T19:20:11.396Z,7.11
2023-01-13T19:22:38.055Z,7.15
2023-01-13T19:25:05.016Z,7.21
2023-01-13T19:27:31.583Z,7.13
2023-01-13T19:29:57.946Z,7.05
2023-01-13T19:32:24.697Z,7.12
2023-01-13T19:34:51.353Z,7.22
2023-01-13T19:37:18.744Z,7.21
2023-01-13T19:39:45.113Z,7.18
2023-01-13T19:42:12.430Z,7.06
2023-01-13T19:44:38.804Z,7.07
2023-01-13T19:47:05.125Z,7.14
2023-01-13T19:49:31.668Z,7.16
2023-01-13T19:51:58.106Z,7.15
2023-01-13T19:54:24.449Z,7.25
2023-01-13T19:56:50.797Z,7.21
2023-01-13T19:59:17.107Z,7.15
2023-01-13T20:01:43.515Z,7.22
2023-01-13T20:04:09.897Z,7.15
2023-01-13T20:06:36.189Z,7.20
2023-01-13T20:09:02.560Z,7.12
2023-01-13T20:11:28.861Z,7.04
2023-01-13T20:13:55.816Z,7.04
2023-01-13T20:16:22.217Z,6.99
2023-01-13T20:18:49.619Z,7.10
2023-01-13T20:21:15.955Z,7.00
2023-01-13T20:23:42.503Z,6.95
2023-01-13T20:26:08.869Z,7.01
2023-01-13T20:28:35.438Z,6.98
2023-01-13T20:31:05.604Z,7.02
2023-01-13T20:33:31.955Z,7.04
2023-01-13T20:35:58.630Z,7.20
2023-01-13T20:38:24.954Z,7.00
2023-01-13T20:41:01.576Z,6.97
2023-01-13T20:43:28.071Z,7.00
2023-01-13T20:45:54.391Z,7.03
2023-01-13T20:48:20.759Z,6.99
2023-01-13T20:50:52.629Z,7.00
2023-01-13T20:53:18.987Z,6.93
2023-01-13T20:55:45.399Z,6.96
2023-01-13T20:58:11.729Z,6.91
2023-01-13T21:00:38.057Z,7.08
2023-01-13T21:03:04.401Z,6.92
2023-01-13T21:05:30.697Z,6.88
2023-01-13T21:07:56.999Z,6.95
2023-01-13T21:10:23.325Z,6.99
2023-01-13T21:12:49.668Z,6.93
2023-01-13T21:15:16.026Z,6.94
2023-01-13T21:17:42.917Z,6.91
2023-01-13T21:20:11.617Z,6.81
2023-01-13T21:22:37.971Z,6.81
2023-01-13T21:25:05.667Z,6.79
2023-01-13T21:27:32.235Z,6.72
2023-01-13T21:29:58.553Z,6.69
2023-01-13T21:32:24.847Z,6.86
2023-01-13T21:34:51.228Z,6.81
2023-01-13T21:37:17.512Z,6.83
2023-01-13T21:39:44.407Z,6.79
2023-01-13T21:42:14.736Z,6.72
2023-01-13T21:44:41.036Z,6.75
2023-01-13T21:47:16.585Z,6.77
2023-01-13T21:49:42.866Z,6.76
2023-01-13T21:52:09.623Z,6.69
2023-01-13T21:54:35.952Z,6.57
2023-01-13T21:57:02.271Z,6.55
2023-01-13T21:59:28.602Z,6.65
2023-01-13T22:02:12.332Z,6.71
2023-01-13T22:04:41.176Z,6.59
2023-01-13T22:07:07.479Z,6.61
2023-01-13T22:09:33.780Z,6.65
2023-01-13T22:12:00.097Z,6.78
2023-01-13T22:14:26.420Z,6.75
2023-01-13T22:16:52.762Z,6.68
2023-01-13T22:19:19.099Z,6.68
2023-01-13T22:21:45.418Z,6.60
2023-01-13T22:24:11.880Z,6.62
2023-01-13T22:26:38.179Z,6.73
2023-01-13T22:29:04.517Z,6.72
2023-01-13T22:31:30.955Z,6.69
2023-01-13T22:33:57.285Z,6.69
2023-01-13T22:36:23.672Z,6.70
2023-01-13T22:38:54.457Z,6.75
2023-01-13T22:41:20.739Z,6.67
2023-01-13T22:43:47.056Z,6.71
2023-01-13T22:46:13.615Z,6.63
2023-01-13T22:48:40.983Z,6.65
2023-01-13T22:51:12.994Z,6.58
2023-01-13T22:53:40.031Z,6.54
2023-01-13T22:56:07.299Z,6.46
2023-01-13T22:58:33.691Z,6.53
2023-01-13T23:01:15.528Z,6.54
2023-01-13T23:03:41.952Z,6.52
2023-01-13T23:06:08.430Z,6.47
2023-01-13T23:08:35.547Z,6.29
2023-01-13T23:11:06.930Z,6.22
2023-01-13T23:13:33.508Z,6.20
2023-01-13T23:16:05.415Z,6.27
2023-01-13T23:18:32.106Z,6.31
2023-01-13T23:21:12.882Z,6.42
2023-01-13T23:23:39.846Z,6.40
2023-01-13T23:26:07.365Z,6.45
2023-01-13T23:28:35.511Z,6.52
2023-01-13T23:31:14.058Z,6.52
2023-01-13T23:33:40.915Z,6.52
2023-01-13T23:36:08.395Z,6.29
2023-01-13T23:38:34.934Z,6.13
2023-01-13T23:41:04.312Z,6.15
2023-01-13T23:43:30.666Z,6.10
2023-01-13T23:46:14.952Z,6.05
2023-01-13T23:48:41.301Z,6.12
2023-01-13T23:51:10.565Z,6.13
2023-01-13T23:53:43.233Z,6.07
2023-01-13T23:56:17.943Z,6.04
2023-01-13T23:58:44.653Z,5.91
